Time;durP1;ratioP1;P1;durP2;ratioP2;P2;SDS_P1;SDS_P2;PMS_P1;PMS_P2;Temp;Humidity;BMP_temperature;BMP_pressure;BME280_temperature;BME280_humidity;BME280_pressure;Samples;Min_cycle;Max_cycle;Signal;HPM_P1;HPM_P2
2020/12/26 00:00:50;;;;;;;;;;;;;;;4.05;100.00;100110.59;5055572;28;19929;-73
2020/12/26 00:03:16;;;;;;;;;;;;;;;4.08;100.00;100091.31;5056524;28;20414;-73
2020/12/26 00:05:43;;;;;;;;;;;;;;;4.10;100.00;100089.00;5038876;28;19925;-73
2020/12/26 00:08:10;;;;;;;;;;;;;;;4.22;100.00;100077.84;5055369;28;19952;-73
2020/12/26 00:10:36;;;;;;;;;;;;;;;4.27;100.00;100077.56;5056623;28;19936;-73
2020/12/26 00:13:03;;;;;;;;;;;;;;;4.27;100.00;100066.50;5054696;28;20011;-73
2020/12/26 00:15:29;;;;;;;;;;;;;;;4.21;100.00;100062.41;5055343;28;19925;-73
2020/12/26 00:17:56;;;;;;;;;;;;;;;4.26;100.00;100053.84;5055987;28;19932;-73
2020/12/26 00:20:22;;;;;;;;;;;;;;;4.20;100.00;100046.97;5055203;28;19928;-73
2020/12/26 00:22:50;;;;;;;;;;;;;;;4.15;100.00;100022.34;5056155;28;19925;-73
2020/12/26 00:25:17;;;;;;;;;;;;;;;4.24;100.00;100022.19;5036228;28;20507;-73
2020/12/26 00:27:43;;;;;;;;;;;;;;;4.29;100.00;100019.94;5036236;28;19925;-73
2020/12/26 00:30:11;;;;;;;;;;;;;;;4.34;100.00;100021.63;5054810;28;20015;-73
2020/12/26 00:32:38;;;;;;;;;;;;;;;4.36;100.00;100022.06;5054899;28;20395;-73
2020/12/26 00:35:04;;;;;;;;;;;;;;;4.33;100.00;100017.25;5055826;28;20256;-74
2020/12/26 00:37:31;;;;;;;;;;;;;;;4.34;100.00;100005.81;5055953;28;19925;-73
2020/12/26 00:39:57;;;;;;;;;;;;;;;4.32;100.00;100002.59;5054098;28;19929;-73
2020/12/26 00:42:24;;;;;;;;;;;;;;;4.32;100.00;100002.59;5055897;28;19960;-74
2020/12/26 00:44:50;;;;;;;;;;;;;;;4.28;100.00;99990.66;5055849;28;19928;-73
2020/12/26 00:47:17;;;;;;;;;;;;;;;4.26;100.00;99987.44;5055710;28;19940;-74
2020/12/26 00:49:48;;;;;;;;;;;;;;;4.33;100.00;99987.59;5054334;28;19924;-73
2020/12/26 00:52:14;;;;;;;;;;;;;;;4.32;100.00;99988.78;5055669;28;19925;-74
2020/12/26 00:54:42;;;;;;;;;;;;;;;4.30;100.00;99982.78;5069115;28;20011;-73
2020/12/26 00:57:08;;;;;;;;;;;;;;;4.27;100.00;99979.97;5063839;28;19924;-73
2020/12/26 00:59:35;;;;;;;;;;;;;;;4.24;100.00;99978.69;5057382;28;19924;-74
2020/12/26 01:02:03;;;;;;;;;;;;;;;4.17;100.00;99967.47;5057825;28;19924;-73
2020/12/26 01:04:41;;;;;;;;;;;;;;;4.13;100.00;99961.06;5072744;28;19932;-73
2020/12/26 01:07:08;;;;;;;;;;;;;;;4.13;100.00;99957.47;5057497;28;19924;-73
2020/12/26 01:09:34;;;;;;;;;;;;;;;4.11;100.00;99960.59;5074661;28;19932;-73
2020/12/26 01:12:00;;;;;;;;;;;;;;;4.13;100.00;99950.00;5075291;28;19924;-73
2020/12/26 01:14:27;;;;;;;;;;;;;;;4.14;100.00;99948.00;5057082;28;19935;-73
2020/12/26 01:16:54;;;;;;;;;;;;;;;4.16;100.00;99949.28;5075157;28;19928;-75
2020/12/26 01:19:20;;;;;;;;;;;;;;;4.13;100.00;99955.53;5040561;28;19931;-75
2020/12/26 01:21:50;;;;;;;;;;;;;;;4.17;100.00;99945.34;5075087;28;19936;-75
2020/12/26 01:24:20;;;;;;;;;;;;;;;4.24;100.00;99950.25;5074481;28;19928;-75
2020/12/26 01:26:47;;;;;;;;;;;;;;;4.25;100.00;99958.19;5074844;28;19932;-74
2020/12/26 01:29:14;;;;;;;;;;;;;;;4.27;100.00;99960.59;5056766;28;19932;-75
2020/12/26 01:31:41;;;;;;;;;;;;;;;4.25;100.00;99958.19;5074876;28;19924;-75
2020/12/26 01:34:08;;;;;;;;;;;;;;;4.23;100.00;99956.91;5074606;28;19924;-75
2020/12/26 01:36:35;;;;;;;;;;;;;;;4.17;100.00;99963.88;5040186;28;19924;-75
2020/12/26 01:39:02;;;;;;;;;;;;;;;4.14;100.00;99965.44;5073963;28;19924;-75
2020/12/26 01:41:29;;;;;;;;;;;;;;;4.15;100.00;99966.22;5056978;28;19955;-75
2020/12/26 01:43:59;;;;;;;;;;;;;;;4.14;100.00;99970.97;5056543;28;19925;-75
2020/12/26 01:46:28;;;;;;;;;;;;;;;4.12;100.00;99976.03;5074575;28;19958;-75
2020/12/26 01:48:55;;;;;;;;;;;;;;;4.10;100.00;99972.03;5074187;28;19925;-75
2020/12/26 01:51:23;;;;;;;;;;;;;;;4.13;100.00;99972.13;5039929;28;19946;-75
2020/12/26 01:53:50;;;;;;;;;;;;;;;4.16;100.00;99971.41;5073894;28;19925;-75
2020/12/26 01:56:17;;;;;;;;;;;;;;;4.17;100.00;99959.16;5039897;28;20361;-75
2020/12/26 01:58:44;;;;;;;;;;;;;;;4.18;100.00;99966.28;5074012;28;19967;-74
2020/12/26 02:01:10;;;;;;;;;;;;;;;4.22;100.00;99961.66;5074199;28;19924;-75
2020/12/26 02:03:39;;;;;;;;;;;;;;;4.22;100.00;99958.91;5056246;28;19933;-74
2020/12/26 02:06:06;;;;;;;;;;;;;;;4.23;100.00;99954.97;5056082;28;19974;-75
2020/12/26 02:08:34;;;;;;;;;;;;;;;4.24;100.00;99956.56;5055862;28;19932;-74
2020/12/26 02:11:04;;;;;;;;;;;;;;;4.26;100.00;99954.25;5074031;28;19924;-75
2020/12/26 02:13:34;;;;;;;;;;;;;;;4.26;100.00;99959.78;5073817;28;19924;-74
2020/12/26 02:16:07;;;;;;;;;;;;;;;4.34;100.00;99969.03;5056097;28;20363;-75
2020/12/26 02:18:35;;;;;;;;;;;;;;;4.32;100.00;99965.81;5055890;28;19931;-75
2020/12/26 02:21:02;;;;;;;;;;;;;;;4.30;100.00;99976.47;5056156;28;19924;-75
2020/12/26 02:23:29;;;;;;;;;;;;;;;4.33;100.00;99982.06;5073370;28;19935;-74
2020/12/26 02:25:56;;;;;;;;;;;;;;;4.37;100.00;99985.72;5055980;28;19925;-75
2020/12/26 02:28:23;;;;;;;;;;;;;;;4.41;100.00;99989.38;5073593;28;19924;-74
2020/12/26 02:30:50;;;;;;;;;;;;;;;4.44;100.00;99987.88;5055935;28;19930;-75
2020/12/26 02:33:17;;;;;;;;;;;;;;;4.49;100.00;99985.63;5055658;28;19951;-75
2020/12/26 02:35:47;;;;;;;;;;;;;;;4.55;100.00;100808.28;5073579;28;19956;-74
2020/12/26 02:38:17;;;;;;;;;;;;;;;4.52;100.00;100787.63;5073072;28;19925;-74
2020/12/26 02:40:47;;;;;;;;;;;;;;;4.58;100.00;100786.25;5055630;28;19928;-75
2020/12/26 02:43:24;;;;;;;;;;;;;;;4.60;100.00;100772.91;5073009;28;19924;-74
2020/12/26 02:45:52;;;;;;;;;;;;;;;4.65;100.00;100758.03;5073388;28;20067;-75
2020/12/26 02:48:18;;;;;;;;;;;;;;;4.62;100.00;100751.19;5055804;28;19924;-73
2020/12/26 02:50:52;;;;;;;;;;;;;;;4.59;100.00;100743.56;5055319;28;20318;-73
2020/12/26 02:53:18;;;;;;;;;;;;;;;4.60;100.00;100736.91;5073452;28;19928;-72
2020/12/26 02:55:45;;;;;;;;;;;;;;;4.70;100.00;100732.84;5073482;28;20256;-72
2020/12/26 02:58:11;;;;;;;;;;;;;;;4.66;100.00;100730.00;5073040;28;19924;-72
2020/12/26 03:00:38;;;;;;;;;;;;;;;4.65;100.00;100720.06;5073456;28;19924;-72
2020/12/26 03:03:04;;;;;;;;;;;;;;;4.69;100.00;100707.16;5072809;28;19929;-73
2020/12/26 03:05:31;;;;;;;;;;;;;;;4.72;100.00;100698.16;5073165;28;19931;-75
2020/12/26 03:07:58;;;;;;;;;;;;;;;4.73;100.00;100693.41;5073088;28;19925;-75
2020/12/26 03:10:24;;;;;;;;;;;;;;;4.79;100.00;100687.28;5055423;28;19925;-74
2020/12/26 03:12:51;;;;;;;;;;;;;;;4.80;100.00;100688.13;5073108;28;20010;-75
2020/12/26 03:15:17;;;;;;;;;;;;;;;4.83;100.00;100682.66;5073246;28;20015;-75
2020/12/26 03:17:44;;;;;;;;;;;;;;;4.81;100.00;100689.72;5055412;28;19999;-74
2020/12/26 03:20:10;;;;;;;;;;;;;;;4.89;100.00;100680.50;5077029;28;19968;-74
2020/12/26 03:22:37;;;;;;;;;;;;;;;4.96;100.00;100686.25;5077035;28;19929;-74
2020/12/26 03:25:03;;;;;;;;;;;;;;;4.91;100.00;100692.81;5077435;28;20390;-74
2020/12/26 03:27:30;;;;;;;;;;;;;;;5.00;100.00;100684.38;5076868;28;20005;-74
2020/12/26 03:29:56;;;;;;;;;;;;;;;4.96;100.00;100678.75;5059283;28;19928;-74
2020/12/26 03:32:23;;;;;;;;;;;;;;;5.01;100.00;100677.72;5042438;28;19925;-75
2020/12/26 03:34:50;;;;;;;;;;;;;;;4.98;100.00;100673.66;5059025;28;19924;-75
2020/12/26 03:37:16;;;;;;;;;;;;;;;5.01;100.00;100672.97;5076575;28;19963;-74
2020/12/26 03:39:43;;;;;;;;;;;;;;;5.05;100.00;100662.81;5076969;28;20347;-75
2020/12/26 03:42:10;;;;;;;;;;;;;;;5.05;100.00;100645.38;5076684;28;20367;-72
2020/12/26 03:44:38;;;;;;;;;;;;;;;5.06;100.00;100647.78;5059161;28;19988;-74
2020/12/26 03:47:05;;;;;;;;;;;;;;;5.11;100.00;100655.06;5076528;28;19978;-75
2020/12/26 03:49:32;;;;;;;;;;;;;;;5.09;100.00;100652.63;5076563;28;19946;-74
2020/12/26 03:51:59;;;;;;;;;;;;;;;5.13;100.00;100653.56;5075995;28;19925;-74
2020/12/26 03:54:26;;;;;;;;;;;;;;;5.10;100.00;100647.91;5058212;28;20302;-75
2020/12/26 03:56:54;;;;;;;;;;;;;;;5.13;100.00;100653.56;5057719;28;19928;-74
2020/12/26 03:59:21;;;;;;;;;;;;;;;5.07;100.00;100630.00;5058709;28;20401;-74
2020/12/26 04:01:48;;;;;;;;;;;;;;;5.08;100.00;100633.59;5076392;28;19952;-74
2020/12/26 04:04:14;;;;;;;;;;;;;;;5.07;100.00;100626.44;5058515;28;20269;-74
2020/12/26 04:06:44;;;;;;;;;;;;;;;5.06;100.00;100619.28;5076209;28;19925;-74
2020/12/26 04:09:11;;;;;;;;;;;;;;;5.04;100.00;100619.63;5025573;28;19932;-74
2020/12/26 04:11:37;;;;;;;;;;;;;;;5.07;100.00;100613.38;5076142;28;19981;-74
2020/12/26 04:14:05;;;;;;;;;;;;;;;5.05;100.00;100601.84;5058444;28;20030;-74
2020/12/26 04:16:31;;;;;;;;;;;;;;;5.13;100.00;100603.69;5058285;28;19951;-74
2020/12/26 04:18:58;;;;;;;;;;;;;;;5.13;100.00;100606.47;5058132;28;20024;-74
2020/12/26 04:21:25;;;;;;;;;;;;;;;5.15;100.00;100595.81;5075917;28;20418;-74
2020/12/26 04:23:52;;;;;;;;;;;;;;;5.18;100.00;100575.72;5058750;28;20007;-74
2020/12/26 04:26:19;;;;;;;;;;;;;;;5.18;100.00;100594.31;5076081;28;19925;-74
2020/12/26 04:28:46;;;;;;;;;;;;;;;5.23;100.00;100592.09;5075668;28;19931;-74
2020/12/26 04:31:13;;;;;;;;;;;;;;;5.22;100.00;100590.50;5075700;28;19931;-74
2020/12/26 04:33:39;;;;;;;;;;;;;;;5.26;100.00;100585.03;5075681;28;20023;-74
2020/12/26 04:36:06;;;;;;;;;;;;;;;5.29;100.00;100579.63;5076027;28;19929;-74
2020/12/26 04:38:33;;;;;;;;;;;;;;;5.30;100.00;100578.44;5057913;28;19924;-74
2020/12/26 04:40:59;;;;;;;;;;;;;;;5.27;100.00;100556.97;5075880;28;19931;-74
2020/12/26 04:43:26;;;;;;;;;;;;;;;5.29;100.00;100562.97;5057811;28;20015;-74
2020/12/26 04:45:54;;;;;;;;;;;;;;;5.30;100.00;100556.28;5058052;28;20371;-74
2020/12/26 04:48:24;;;;;;;;;;;;;;;5.28;100.00;100555.84;5075190;28;20025;-74
2020/12/26 04:50:53;;;;;;;;;;;;;;;5.33;100.00;100552.78;5075784;28;19924;-73
2020/12/26 04:53:20;;;;;;;;;;;;;;;5.33;100.00;100552.78;5075303;28;19928;-74
2020/12/26 04:55:48;;;;;;;;;;;;;;;5.38;100.00;100557.28;5057893;28;20015;-74
2020/12/26 04:58:15;;;;;;;;;;;;;;;5.36;100.00;100538.22;5075248;28;20372;-74
2020/12/26 05:00:42;;;;;;;;;;;;;;;5.41;100.00;100546.28;5075432;28;20424;-73
2020/12/26 05:03:10;;;;;;;;;;;;;;;5.41;100.00;100543.53;5075011;28;20374;-73
2020/12/26 05:05:40;;;;;;;;;;;;;;;5.49;100.00;100541.75;5075587;28;20011;-72
2020/12/26 05:08:10;;;;;;;;;;;;;;;5.49;100.00;100542.56;5074886;28;19932;-72
2020/12/26 05:10:38;;;;;;;;;;;;;;;5.53;100.00;100532.38;5041148;28;19932;-74
2020/12/26 05:13:05;;;;;;;;;;;;;;;5.55;100.00;100527.28;5057245;28;20024;-74
2020/12/26 05:15:33;;;;;;;;;;;;;;;5.55;100.00;100515.38;5075117;28;19971;-74
2020/12/26 05:17:59;;;;;;;;;;;;;;;5.49;100.00;100506.53;5074732;28;19925;-74
2020/12/26 05:20:26;;;;;;;;;;;;;;;5.48;100.00;100498.56;5074980;28;20011;-74
2020/12/26 05:23:09;;;;;;;;;;;;;;;5.46;100.00;100481.47;5074755;28;19931;-74
2020/12/26 05:26:01;;;;;;;;;;;;;;;5.40;100.00;100464.31;5075163;28;19924;-74
2020/12/26 05:28:32;;;;;;;;;;;;;;;5.45;100.00;100458.47;5056400;28;20057;-74
2020/12/26 05:31:05;;;;;;;;;;;;;;;5.49;100.00;100445.53;5074439;28;19924;-74
2020/12/26 05:33:33;;;;;;;;;;;;;;;5.52;100.00;100444.81;5074801;28;20015;-74
2020/12/26 05:36:04;;;;;;;;;;;;;;;5.55;100.00;100433.00;5074658;28;20382;-74
2020/12/26 05:38:31;;;;;;;;;;;;;;;5.56;100.00;100437.38;5074421;28;19945;-72
2020/12/26 05:40:59;;;;;;;;;;;;;;;5.58;100.00;100442.56;5073749;28;20280;-74
2020/12/26 05:43:27;;;;;;;;;;;;;;;5.65;100.00;100444.72;5073824;28;20248;-72
2020/12/26 05:45:54;;;;;;;;;;;;;;;5.62;100.00;100431.59;5073889;28;20027;-72
2020/12/26 05:48:21;;;;;;;;;;;;;;;5.66;100.00;100438.00;5074092;28;19924;-72
2020/12/26 05:50:50;;;;;;;;;;;;;;;5.68;100.00;100424.59;5056048;28;19924;-72
2020/12/26 05:53:21;;;;;;;;;;;;;;;5.66;100.00;100443.56;5073055;28;20395;-74
2020/12/26 05:55:48;;;;;;;;;;;;;;;5.67;100.00;100418.25;5073732;28;19972;-72
2020/12/26 05:58:18;;;;;;;;;;;;;;;5.70;100.00;100417.53;5055112;28;19929;-74
2020/12/26 06:00:45;;;;;;;;;;;;;;;5.66;100.00;100424.16;5055888;28;20025;-73
2020/12/26 06:03:27;;;;;;;;;;;;;;;5.62;100.00;100418.50;5073697;28;19933;-72
2020/12/26 06:05:58;;;;;;;;;;;;;;;5.66;100.00;100413.88;5045614;28;19950;-74
2020/12/26 06:08:25;;;;;;;;;;;;;;;5.63;100.00;100417.34;5039983;28;20017;-74
2020/12/26 06:10:53;;;;;;;;;;;;;;;5.62;100.00;100406.63;5074110;28;19925;-74
2020/12/26 06:13:24;;;;;;;;;;;;;;;5.62;100.00;100406.63;5074198;28;20027;-72
2020/12/26 06:15:55;;;;;;;;;;;;;;;5.66;100.00;100404.75;5056057;28;19964;-72
2020/12/26 06:18:23;;;;;;;;;;;;;;;5.72;100.00;100398.56;5073941;28;20310;-73
2020/12/26 06:20:50;;;;;;;;;;;;;;;5.70;100.00;100388.97;5074056;28;19931;-72
2020/12/26 06:23:18;;;;;;;;;;;;;;;5.76;100.00;100393.09;5074003;28;19990;-73
2020/12/26 06:25:45;;;;;;;;;;;;;;;5.71;100.00;100385.06;5073799;28;19991;-72
2020/12/26 06:28:20;;;;;;;;;;;;;;;5.74;100.00;100400.97;5073701;28;20370;-75
2020/12/26 06:30:47;;;;;;;;;;;;;;;5.76;100.00;100387.53;5073562;28;20070;-72
2020/12/26 06:33:14;;;;;;;;;;;;;;;5.74;100.00;100390.66;5073623;28;19931;-74
2020/12/26 06:35:44;;;;;;;;;;;;;;;5.76;100.00;100404.19;5055984;28;19925;-73
2020/12/26 06:38:13;;;;;;;;;;;;;;;5.71;100.00;100391.41;5055699;28;19924;-73
2020/12/26 06:40:49;;;;;;;;;;;;;;;5.73;100.00;100405.72;5073730;28;19931;-73
2020/12/26 06:43:35;;;;;;;;;;;;;;;5.80;100.00;100430.06;5055437;28;19924;-74
2020/12/26 06:46:01;;;;;;;;;;;;;;;5.81;100.00;100426.09;5073637;28;20019;-74
2020/12/26 06:48:34;;;;;;;;;;;;;;;5.83;100.00;100421.84;5073575;28;19932;-73
2020/12/26 06:51:19;;;;;;;;;;;;;;;5.87;100.00;100438.56;5073490;28;20022;-73
2020/12/26 06:53:46;;;;;;;;;;;;;;;5.89;100.00;100458.44;5055752;28;19933;-74
2020/12/26 06:56:31;;;;;;;;;;;;;;;5.96;100.00;100459.44;5055561;28;20011;-74
2020/12/26 06:59:11;;;;;;;;;;;;;;;6.03;100.00;100469.91;5053086;28;19969;-72
2020/12/26 07:01:39;;;;;;;;;;;;;;;6.06;100.00;100497.72;5057540;28;19924;-72
2020/12/26 07:04:13;;;;;;;;;;;;;;;6.11;100.00;100518.84;5073576;28;19925;-73
2020/12/26 07:06:39;;;;;;;;;;;;;;;6.11;100.00;100535.50;5073289;28;19932;-72
2020/12/26 07:09:07;;;;;;;;;;;;;;;6.10;100.00;100547.75;5071931;28;19925;-72
2020/12/26 07:11:46;;;;;;;;;;;;;;;6.07;100.00;100565.94;5072789;28;19925;-72
2020/12/26 07:14:31;;;;;;;;;;;;;;;6.03;100.00;100592.00;5073488;28;19929;-72
2020/12/26 07:17:04;;;;;;;;;;;;;;;5.95;100.00;100585.44;5072986;28;19924;-72
2020/12/26 07:19:33;;;;;;;;;;;;;;;5.98;100.00;100617.22;5073389;28;20303;-72
2020/12/26 07:22:00;;;;;;;;;;;;;;;5.97;100.00;100635.03;5073055;28;19931;-73
2020/12/26 07:24:30;;;;;;;;;;;;;;;5.97;100.00;100652.47;5055360;28;19928;-72
2020/12/26 07:27:14;;;;;;;;;;;;;;;5.99;100.00;100663.22;5034970;28;19985;-72
2020/12/26 07:29:59;;;;;;;;;;;;;;;5.99;100.00;100696.50;5053249;28;19924;-72
2020/12/26 07:32:43;;;;;;;;;;;;;;;5.99;100.00;100697.34;5063354;28;20279;-73
2020/12/26 07:35:14;;;;;;;;;;;;;;;5.93;100.00;100731.22;5055406;28;19977;-73
2020/12/26 07:37:44;;;;;;;;;;;;;;;5.94;100.00;100758.63;5072680;28;20023;-72
2020/12/26 07:40:21;;;;;;;;;;;;;;;5.92;100.00;100771.25;5073228;28;19924;-72
2020/12/26 07:42:49;;;;;;;;;;;;;;;5.93;100.00;100806.13;5054927;28;19935;-75
2020/12/26 07:45:16;;;;;;;;;;;;;;;5.92;100.00;100824.78;5073022;28;19925;-73
2020/12/26 07:47:44;;;;;;;;;;;;;;;5.92;100.00;100835.06;5072824;28;19964;-73
2020/12/26 07:50:11;;;;;;;;;;;;;;;5.92;100.00;100837.84;5055124;28;19925;-73
2020/12/26 07:52:38;;;;;;;;;;;;;;;5.94;100.00;100843.84;5053438;28;20018;-73
2020/12/26 07:55:04;;;;;;;;;;;;;;;5.97;100.00;100851.47;5054948;28;19931;-73
2020/12/26 07:57:31;;;;;;;;;;;;;;;5.95;100.00;100846.28;5072241;28;19925;-75
2020/12/26 08:00:00;;;;;;;;;;;;;;;6.01;100.00;100844.88;5072635;28;19931;-75
2020/12/26 08:02:32;;;;;;;;;;;;;;;5.99;100.00;100846.34;5072690;28;20303;-74
2020/12/26 08:04:59;;;;;;;;;;;;;;;6.00;100.00;100848.00;5057128;28;20005;-72
2020/12/26 08:07:30;;;;;;;;;;;;;;;6.01;100.00;100844.06;5076246;28;19928;-74
2020/12/26 08:09:58;;;;;;;;;;;;;;;6.00;100.00;100845.22;5076181;28;19971;-75
2020/12/26 08:12:25;;;;;;;;;;;;;;;6.05;100.00;100842.19;5060160;28;19955;-73
2020/12/26 08:14:58;;;;;;;;;;;;;;;6.05;100.00;100839.41;5056603;28;19932;-73
2020/12/26 08:17:25;;;;;;;;;;;;;;;6.01;100.00;100838.50;5038472;28;20012;-72
2020/12/26 08:19:58;;;;;;;;;;;;;;;6.04;100.00;100837.81;5056229;28;19931;-73
2020/12/26 08:22:25;;;;;;;;;;;;;;;6.08;100.00;100838.72;5056271;28;19925;-73
2020/12/26 08:25:07;;;;;;;;;;;;;;;6.09;100.00;100843.91;5055795;28;20377;-73
2020/12/26 08:27:39;;;;;;;;;;;;;;;6.08;100.00;100831.19;5038217;28;19931;-73
2020/12/26 08:30:08;;;;;;;;;;;;;;;6.12;100.00;100828.53;5038393;28;19924;-73
2020/12/26 08:32:52;;;;;;;;;;;;;;;6.15;100.00;100830.59;5075416;28;19952;-74
2020/12/26 08:35:20;;;;;;;;;;;;;;;6.17;100.00;100836.59;5075670;28;19947;-74
2020/12/26 08:37:50;;;;;;;;;;;;;;;6.06;100.00;100830.72;5072954;28;19931;-76
2020/12/26 08:40:17;;;;;;;;;;;;;;;5.94;100.00;100828.00;5057266;28;19932;-74
2020/12/26 08:42:44;;;;;;;;;;;;;;;5.83;100.00;100801.88;5074659;28;19932;-76
2020/12/26 08:45:23;;;;;;;;;;;;;;;5.75;100.00;100785.34;5057597;28;19928;-74
2020/12/26 08:47:49;;;;;;;;;;;;;;;5.66;100.00;100770.81;5063599;28;19967;-76
2020/12/26 08:50:16;;;;;;;;;;;;;;;5.60;100.00;100776.59;5057918;28;19924;-75
2020/12/26 08:52:43;;;;;;;;;;;;;;;5.56;100.00;100761.81;5057450;28;19930;-76
2020/12/26 08:55:10;;;;;;;;;;;;;;;5.55;100.00;100746.34;5053998;28;19932;-76
2020/12/26 08:57:37;;;;;;;;;;;;;;;5.55;100.00;100710.28;5056449;28;19924;-75
2020/12/26 09:00:14;;;;;;;;;;;;;;;5.57;100.00;100608.13;5057631;28;19924;-75
2020/12/26 09:02:45;;;;;;;;;;;;;;;5.58;100.00;100581.22;5057716;28;19929;-75
2020/12/26 09:05:20;;;;;;;;;;;;;;;5.56;100.00;100573.25;5075253;28;20378;-76
2020/12/26 09:07:47;;;;;;;;;;;;;;;5.57;100.00;100572.09;5075159;28;19924;-76
2020/12/26 09:10:14;;;;;;;;;;;;;;;5.58;100.00;100576.50;5057344;28;19925;-76
2020/12/26 09:12:42;;;;;;;;;;;;;;;5.63;100.00;100556.81;5056717;28;19939;-76
2020/12/26 09:15:08;;;;;;;;;;;;;;;5.65;100.00;100539.81;5074881;28;19925;-74
2020/12/26 09:17:35;;;;;;;;;;;;;;;5.67;100.00;100550.53;5074944;28;19932;-76
2020/12/26 09:20:02;;;;;;;;;;;;;;;5.64;100.00;100529.88;5063904;28;19954;-78
2020/12/26 09:22:29;;;;;;;;;;;;;;;5.59;100.00;100528.19;5092626;28;19924;-76
2020/12/26 09:25:22;;;;;;;;;;;;;;;5.60;100.00;100512.34;5083331;28;20014;-77
2020/12/26 09:28:00;;;;;;;;;;;;;;;5.55;100.00;100505.09;5057064;28;19925;-77
2020/12/26 09:30:27;;;;;;;;;;;;;;;5.59;100.00;100489.34;5063495;28;19925;-76
2020/12/26 09:32:54;;;;;;;;;;;;;;;5.61;100.00;100489.00;5051005;28;20380;-76
2020/12/26 09:35:22;;;;;;;;;;;;;;;5.58;100.00;100475.84;5070042;28;19924;-79
2020/12/26 09:37:49;;;;;;;;;;;;;;;5.55;100.00;100455.19;5053826;28;19924;-82
2020/12/26 09:40:16;;;;;;;;;;;;;;;5.49;100.00;100434.44;5054377;28;20501;-82
2020/12/26 09:42:43;;;;;;;;;;;;;;;5.49;100.00;100426.13;5054159;28;19975;-84
2020/12/26 09:45:09;;;;;;;;;;;;;;;5.45;100.00;100422.44;5036423;28;20015;-79
2020/12/26 09:47:36;;;;;;;;;;;;;;;5.43;100.00;100413.69;5070931;28;19936;-79
2020/12/26 09:50:03;;;;;;;;;;;;;;;5.42;100.00;100414.84;5070725;28;19924;-78
2020/12/26 09:52:29;;;;;;;;;;;;;;;5.42;100.00;100427.91;5052606;28;19924;-79
2020/12/26 09:54:56;;;;;;;;;;;;;;;5.44;100.00;100425.56;5052434;28;19970;-79
2020/12/26 09:57:23;;;;;;;;;;;;;;;5.47;100.00;100425.66;5035545;28;19924;-80
2020/12/26 09:59:49;;;;;;;;;;;;;;;5.56;100.00;100417.97;5053011;28;20601;-79
2020/12/26 10:02:16;;;;;;;;;;;;;;;5.63;100.00;100401.50;5052007;28;20018;-79
2020/12/26 10:04:52;;;;;;;;;;;;;;;5.60;100.00;100393.91;5071110;28;19948;-82
2020/12/26 10:07:19;;;;;;;;;;;;;;;5.60;100.00;100398.66;5052849;28;19931;-80
2020/12/26 10:09:46;;;;;;;;;;;;;;;5.62;100.00;100398.31;5051861;28;19935;-80
2020/12/26 10:12:12;;;;;;;;;;;;;;;5.66;100.00;100377.00;5031771;28;20284;-79
2020/12/26 10:14:39;;;;;;;;;;;;;;;5.63;100.00;100373.78;5064618;28;19925;-80
2020/12/26 10:17:05;;;;;;;;;;;;;;;5.66;100.00;100388.09;5070116;28;19932;-80
2020/12/26 10:19:32;;;;;;;;;;;;;;;5.65;100.00;100384.50;5068103;28;20467;-79
2020/12/26 10:21:59;;;;;;;;;;;;;;;5.69;100.00;100381.84;5052003;28;20287;-80
2020/12/26 10:24:26;;;;;;;;;;;;;;;5.63;100.00;100379.31;5069713;28;19939;-80
2020/12/26 10:26:52;;;;;;;;;;;;;;;5.63;100.00;100350.00;5069405;28;19928;-79
2020/12/26 10:29:19;;;;;;;;;;;;;;;5.60;100.00;100346.78;5068962;28;19929;-81
2020/12/26 10:31:45;;;;;;;;;;;;;;;5.70;100.00;100319.66;5069406;28;19924;-79
2020/12/26 10:34:12;;;;;;;;;;;;;;;5.73;100.00;100305.88;5069400;28;19924;-81
2020/12/26 10:36:42;;;;;;;;;;;;;;;5.80;100.00;100283.06;5051398;28;19924;-79
2020/12/26 10:39:09;;;;;;;;;;;;;;;5.87;100.00;100272.13;5045446;28;19967;-78
2020/12/26 10:41:36;;;;;;;;;;;;;;;5.84;100.00;100253.44;5069221;28;19954;-79
2020/12/26 10:44:02;;;;;;;;;;;;;;;5.99;100.00;100247.84;5069227;28;19928;-78
2020/12/26 10:46:32;;;;;;;;;;;;;;;6.03;100.00;100253.47;5069074;28;19987;-78
2020/12/26 10:48:58;;;;;;;;;;;;;;;6.06;100.00;100238.88;5068468;28;20042;-78
2020/12/26 10:51:25;;;;;;;;;;;;;;;6.14;100.00;100226.72;5069400;28;19929;-79
2020/12/26 10:53:52;;;;;;;;;;;;;;;6.23;100.00;100218.97;5069937;28;20252;-79
2020/12/26 10:56:18;;;;;;;;;;;;;;;6.26;100.00;100202.41;5069469;28;19971;-80
2020/12/26 10:58:45;;;;;;;;;;;;;;;6.30;100.00;100188.59;5069374;28;19932;-83
2020/12/26 11:01:11;;;;;;;;;;;;;;;6.38;100.00;100193.09;5061424;28;19931;-80
2020/12/26 11:03:38;;;;;;;;;;;;;;;6.39;100.00;100180.81;5069814;28;20350;-81
2020/12/26 11:06:04;;;;;;;;;;;;;;;6.49;100.00;100174.66;5069879;28;20430;-79
2020/12/26 11:08:31;;;;;;;;;;;;;;;6.55;100.00;100175.94;5068705;28;19925;-79
2020/12/26 11:10:58;;;;;;;;;;;;;;;6.64;100.00;100173.72;5070901;28;20396;-82
2020/12/26 11:13:25;;;;;;;;;;;;;;;6.63;100.00;100155.47;5052339;28;19925;-81
2020/12/26 11:15:52;;;;;;;;;;;;;;;6.65;100.00;100153.13;5052931;28;19980;-81
2020/12/26 11:18:18;;;;;;;;;;;;;;;6.68;100.00;100158.72;5052565;28;19935;-81
2020/12/26 11:20:46;;;;;;;;;;;;;;;6.74;100.00;100145.34;5069610;28;19925;-80
2020/12/26 11:23:15;;;;;;;;;;;;;;;6.76;100.00;100162.41;5070259;28;19924;-80
2020/12/26 11:25:41;;;;;;;;;;;;;;;6.83;100.00;100173.66;5072905;28;20026;-80
2020/12/26 11:28:08;;;;;;;;;;;;;;;6.85;100.00;100174.06;5054828;28;19952;-79
2020/12/26 11:30:34;;;;;;;;;;;;;;;6.80;100.00;100191.09;5073284;28;19944;-78
2020/12/26 11:33:01;;;;;;;;;;;;;;;6.89;100.00;100183.28;5072572;28;19924;-78
2020/12/26 11:35:28;;;;;;;;;;;;;;;6.97;100.00;100185.00;5073100;28;19982;-81
2020/12/26 11:37:54;;;;;;;;;;;;;;;6.99;100.00;100175.13;5073035;28;19967;-79
2020/12/26 11:40:21;;;;;;;;;;;;;;;7.00;100.00;100184.25;5058329;28;19925;-81
2020/12/26 11:42:47;;;;;;;;;;;;;;;6.93;100.00;100173.84;5059733;28;19929;-87
2020/12/26 11:45:14;;;;;;;;;;;;;;;6.97;100.00;100183.03;5043416;28;19930;-81
2020/12/26 11:47:41;;;;;;;;;;;;;;;6.90;100.00;100182.09;5059226;28;19947;-81
2020/12/26 11:50:08;;;;;;;;;;;;;;;6.81;100.00;100184.34;5059596;28;19959;-78
2020/12/26 11:52:34;;;;;;;;;;;;;;;6.82;100.00;100181.19;5067271;28;19951;-80
2020/12/26 11:55:01;;;;;;;;;;;;;;;6.89;100.00;100197.19;5073907;28;19925;-82
2020/12/26 11:57:28;;;;;;;;;;;;;;;6.89;100.00;100202.75;5042534;28;19932;-81
2020/12/26 11:59:55;;;;;;;;;;;;;;;6.97;100.00;100205.25;5077560;28;19928;-82
2020/12/26 12:02:22;;;;;;;;;;;;;;;6.91;100.00;100203.97;5042088;28;19925;-80
2020/12/26 12:04:48;;;;;;;;;;;;;;;6.89;100.00;100202.75;5042816;28;19924;-81
2020/12/26 12:07:15;;;;;;;;;;;;;;;6.86;100.00;100192.38;5077056;28;19931;-81
2020/12/26 12:09:41;;;;;;;;;;;;;;;6.82;100.00;100133.16;5077003;28;19930;-82
2020/12/26 12:12:08;;;;;;;;;;;;;;;6.90;100.00;100076.53;5058952;28;20437;-81
2020/12/26 12:14:34;;;;;;;;;;;;;;;6.86;100.00;99997.91;5059038;28;19925;-81
2020/12/26 12:17:01;;;;;;;;;;;;;;;6.85;100.00;99918.50;5042136;28;20368;-80
2020/12/26 12:19:28;;;;;;;;;;;;;;;6.88;100.00;99871.31;5042403;28;20018;-81
2020/12/26 12:21:54;;;;;;;;;;;;;;;6.85;100.00;99818.47;5042652;28;19924;-82
2020/12/26 12:24:21;;;;;;;;;;;;;;;6.84;100.00;99739.13;5076432;28;19990;-81
2020/12/26 12:26:51;;;;;;;;;;;;;;;6.80;100.00;99688.28;5042242;28;20284;-79
2020/12/26 12:29:18;;;;;;;;;;;;;;;6.82;100.00;99647.03;5076568;28;19962;-79
2020/12/26 12:31:45;;;;;;;;;;;;;;;6.75;100.00;99602.53;5076475;28;19985;-80
2020/12/26 12:34:11;;;;;;;;;;;;;;;6.82;100.00;99578.38;5076711;28;19924;-81
2020/12/26 12:36:38;;;;;;;;;;;;;;;6.80;100.00;99554.97;5058803;28;19932;-79
2020/12/26 12:39:04;;;;;;;;;;;;;;;6.76;100.00;99515.25;5058302;28;19924;-80
2020/12/26 12:41:31;;;;;;;;;;;;;;;6.81;100.00;99506.56;5076664;28;19931;-81
2020/12/26 12:43:58;;;;;;;;;;;;;;;6.85;100.00;99496.25;5058534;28;19934;-79